Time;durP1;ratioP1;P1;durP2;ratioP2;P2;SDS_P1;SDS_P2;PMS_P1;PMS_P2;Temp;Humidity;BMP_temperature;BMP_pressure;BME280_temperature;BME280_humidity;BME280_pressure;Samples;Min_cycle;Max_cycle;Signal;HPM_P1;HPM_P2
2023/10/31 00:01:49;;;;;;;1.83;0.70;;;8.20;99.90;;;;;;5018440;28;20498;-76
2023/10/31 00:04:15;;;;;;;5.70;1.25;;;8.20;99.90;;;;;;5033664;28;20102;-75
2023/10/31 00:06:41;;;;;;;2.40;0.55;;;8.10;99.90;;;;;;5035241;28;20041;-75
2023/10/31 00:09:08;;;;;;;3.47;1.08;;;8.00;99.90;;;;;;5015783;28;20156;-75
2023/10/31 00:11:34;;;;;;;1.25;0.98;;;7.90;99.90;;;;;;5036702;28;20072;-75
2023/10/31 00:13:59;;;;;;;0.93;0.55;;;7.90;99.90;;;;;;5017007;28;20770;-75
2023/10/31 00:16:25;;;;;;;0.70;0.70;;;7.80;99.90;;;;;;5035314;28;20044;-75
2023/10/31 00:18:51;;;;;;;0.90;0.90;;;7.70;99.90;;;;;;5026699;28;20148;-75
2023/10/31 00:21:16;;;;;;;0.68;0.68;;;7.70;99.90;;;;;;5030984;28;20037;-76
2023/10/31 00:23:43;;;;;;;1.30;0.63;;;7.70;99.90;;;;;;5012929;28;20029;-76
2023/10/31 00:26:09;;;;;;;0.68;0.43;;;7.70;99.90;;;;;;5033849;28;21388;-75
2023/10/31 00:28:35;;;;;;;1.00;0.60;;;7.60;99.90;;;;;;5017601;28;20040;-76
2023/10/31 00:31:01;;;;;;;0.70;0.50;;;7.60;99.90;;;;;;5034576;28;20112;-75
2023/10/31 00:33:27;;;;;;;2.53;0.68;;;7.60;99.90;;;;;;5024131;28;20036;-75
2023/10/31 00:35:52;;;;;;;0.90;0.43;;;7.50;99.90;;;;;;5034220;28;20039;-75
2023/10/31 00:38:18;;;;;;;0.50;0.50;;;7.50;99.90;;;;;;5024024;28;20052;-74
2023/10/31 00:40:43;;;;;;;0.47;0.40;;;7.50;99.90;;;;;;5037136;28;20485;-75
2023/10/31 00:43:09;;;;;;;0.73;0.50;;;7.50;99.90;;;;;;5024458;28;20040;-75
2023/10/31 00:45:35;;;;;;;0.55;0.47;;;7.50;99.90;;;;;;5034096;28;20041;-75
2023/10/31 00:48:01;;;;;;;2.97;0.68;;;7.50;99.90;;;;;;5031154;28;20079;-75
2023/10/31 00:50:26;;;;;;;1.38;0.80;;;7.50;99.90;;;;;;5020405;28;20037;-75
2023/10/31 00:52:52;;;;;;;1.05;0.45;;;7.50;99.90;;;;;;5027708;28;20137;-74
2023/10/31 00:55:17;;;;;;;1.10;0.88;;;7.50;99.90;;;;;;5010763;28;20115;-75
2023/10/31 00:57:43;;;;;;;0.70;0.50;;;7.60;99.90;;;;;;5032132;28;20090;-74
2023/10/31 01:00:09;;;;;;;0.57;0.57;;;7.60;99.90;;;;;;5019911;28;20067;-76
2023/10/31 01:02:35;;;;;;;0.47;0.40;;;7.70;99.90;;;;;;5029831;28;20669;-75
2023/10/31 01:05:01;;;;;;;0.77;0.40;;;7.70;99.90;;;;;;5025031;28;20037;-75
2023/10/31 01:07:26;;;;;;;0.82;0.65;;;7.70;99.90;;;;;;5037708;28;20025;-75
2023/10/31 01:09:52;;;;;;;1.48;0.70;;;7.70;99.90;;;;;;5023889;28;20045;-74
2023/10/31 01:12:18;;;;;;;2.88;0.60;;;7.80;99.90;;;;;;5040598;28;20032;-75
2023/10/31 01:14:43;;;;;;;1.60;0.47;;;7.70;99.90;;;;;;5024301;28;20120;-75
2023/10/31 01:17:09;;;;;;;0.57;0.57;;;7.70;99.90;;;;;;5034494;28;20036;-75
2023/10/31 01:19:34;;;;;;;0.85;0.82;;;7.70;99.90;;;;;;5022344;28;20096;-74
2023/10/31 01:22:00;;;;;;;1.40;0.77;;;7.70;99.90;;;;;;5031433;28;20069;-74
2023/10/31 01:24:26;;;;;;;3.65;0.63;;;7.80;99.90;;;;;;5027464;28;20045;-74
2023/10/31 01:26:51;;;;;;;6.32;0.77;;;7.80;99.90;;;;;;5032729;28;20036;-74
2023/10/31 01:29:17;;;;;;;0.70;0.45;;;7.80;99.90;;;;;;5032728;28;20028;-75
2023/10/31 01:31:43;;;;;;;4.80;0.88;;;7.80;99.90;;;;;;5024078;28;20029;-75
2023/10/31 01:34:08;;;;;;;1.08;0.85;;;7.90;99.90;;;;;;5042195;28;20025;-75
2023/10/31 01:36:34;;;;;;;0.90;0.88;;;7.90;99.90;;;;;;5024807;28;20147;-75
2023/10/31 01:39:00;;;;;;;0.57;0.47;;;7.90;99.90;;;;;;5033564;28;20079;-74
2023/10/31 01:41:26;;;;;;;1.25;0.70;;;8.00;99.90;;;;;;5026947;28;20509;-75
2023/10/31 01:43:51;;;;;;;8.63;1.30;;;8.10;99.90;;;;;;5039704;28;20039;-75
2023/10/31 01:46:17;;;;;;;0.50;0.50;;;8.10;99.90;;;;;;5029039;28;20040;-75
2023/10/31 01:48:43;;;;;;;0.50;0.50;;;8.10;99.90;;;;;;5033800;28;20044;-75
2023/10/31 01:51:09;;;;;;;1.45;0.40;;;8.20;99.90;;;;;;5026614;28;20036;-75
2023/10/31 01:53:36;;;;;;;1.48;0.95;;;8.20;99.90;;;;;;5032355;28;20104;-75
2023/10/31 01:56:04;;;;;;;0.70;0.70;;;8.40;99.90;;;;;;5044489;22;20091;-76
2023/10/31 01:58:34;;;;;;;1.38;0.70;;;8.50;99.90;;;;;;5064844;28;20040;-75
2023/10/31 02:01:01;;;;;;;;;;;8.60;99.90;;;;;;5058182;22;20053;-75
2023/10/31 02:03:27;;;;;;;6.63;0.75;;;8.70;99.90;;;;;;5051339;28;19909;-75
2023/10/31 02:05:54;;;;;;;1.05;0.82;;;8.80;99.90;;;;;;5038785;28;20036;-75
2023/10/31 02:08:20;;;;;;;0.75;0.75;;;8.90;99.90;;;;;;5035611;28;20068;-75
2023/10/31 02:10:45;;;;;;;1.10;0.98;;;8.90;99.90;;;;;;5033004;28;20033;-74
2023/10/31 02:13:12;;;;;;;1.08;1.08;;;8.90;99.90;;;;;;5024849;28;20518;-74
2023/10/31 02:15:38;;;;;;;0.75;0.50;;;9.00;99.90;;;;;;5054941;28;20029;-75
2023/10/31 02:18:04;;;;;;;1.10;0.93;;;9.10;99.90;;;;;;5041030;28;20032;-74
2023/10/31 02:20:29;;;;;;;0.90;0.55;;;9.20;99.90;;;;;;5059214;28;20498;-74
2023/10/31 02:22:55;;;;;;;0.82;0.82;;;9.20;99.90;;;;;;5040759;28;20155;-75
2023/10/31 02:25:20;;;;;;;1.42;0.47;;;9.30;99.90;;;;;;5055362;28;20036;-74
2023/10/31 02:27:46;;;;;;;1.95;0.80;;;9.40;99.90;;;;;;5039177;28;20455;-75
2023/10/31 02:30:12;;;;;;;0.88;0.70;;;9.50;99.90;;;;;;5049690;28;20120;-74
2023/10/31 02:32:38;;;;;;;2.65;1.15;;;9.50;99.90;;;;;;5041643;28;20479;-74
2023/10/31 02:35:04;;;;;;;0.75;0.73;;;9.50;99.90;;;;;;5049983;28;20548;-74
2023/10/31 02:37:30;;;;;;;2.17;0.50;;;9.50;99.90;;;;;;5043172;28;20025;-75
2023/10/31 02:39:56;;;;;;;1.60;0.35;;;9.60;99.90;;;;;;5061287;28;20040;-75
2023/10/31 02:42:21;;;;;;;0.20;0.20;;;9.60;99.90;;;;;;5041224;28;20039;-75
2023/10/31 02:44:47;;;;;;;0.47;0.47;;;9.70;99.90;;;;;;5053722;28;20492;-74
2023/10/31 02:47:13;;;;;;;2.97;0.75;;;9.80;99.90;;;;;;5041106;28;20025;-74
2023/10/31 02:49:38;;;;;;;0.68;0.45;;;9.80;99.90;;;;;;5055283;28;20488;-75
2023/10/31 02:52:04;;;;;;;0.75;0.63;;;9.80;99.90;;;;;;5056685;28;20032;-74
2023/10/31 02:54:30;;;;;;;1.00;0.50;;;9.80;99.90;;;;;;5045827;28;20128;-74
2023/10/31 02:56:55;;;;;;;5.57;0.70;;;9.90;99.90;;;;;;5049425;28;20492;-74
2023/10/31 02:59:21;;;;;;;0.60;0.30;;;10.00;99.90;;;;;;5040537;28;20041;-74
2023/10/31 03:01:47;;;;;;;0.30;0.30;;;10.10;99.90;;;;;;5037269;28;20076;-74
2023/10/31 03:04:12;;;;;;;0.32;0.32;;;10.10;99.90;;;;;;5024536;28;20036;-74
2023/10/31 03:06:38;;;;;;;0.47;0.43;;;10.20;99.90;;;;;;5047890;28;20040;-73
2023/10/31 03:09:04;;;;;;;0.40;0.30;;;10.30;99.90;;;;;;5034099;28;20024;-73
2023/10/31 03:11:29;;;;;;;2.50;0.60;;;10.30;99.90;;;;;;5049943;28;20122;-73
2023/10/31 03:13:56;;;;;;;0.22;0.20;;;10.40;99.90;;;;;;5038632;28;20484;-74
2023/10/31 03:16:22;;;;;;;0.20;0.20;;;10.40;99.90;;;;;;5045439;28;20492;-74
2023/10/31 03:18:48;;;;;;;4.88;0.40;;;10.50;99.90;;;;;;5039214;28;20119;-74
2023/10/31 03:21:14;;;;;;;1.30;0.17;;;10.40;99.90;;;;;;5049965;28;20039;-74
2023/10/31 03:23:42;;;;;;;0.88;0.68;;;10.40;99.90;;;;;;5034856;28;20037;-74
2023/10/31 03:26:08;;;;;;;0.75;0.52;;;10.50;99.90;;;;;;5047538;28;20042;-75
2023/10/31 03:28:33;;;;;;;1.55;0.47;;;10.50;99.90;;;;;;5035483;28;20048;-74
2023/10/31 03:30:59;;;;;;;0.47;0.35;;;10.50;99.90;;;;;;5048965;28;20032;-74
2023/10/31 03:33:24;;;;;;;0.08;0.08;;;10.60;99.90;;;;;;5067562;28;20054;-74
2023/10/31 03:35:50;;;;;;;0.55;0.20;;;10.60;99.90;;;;;;5037965;28;21144;-75
2023/10/31 03:38:16;;;;;;;0.17;0.17;;;10.60;99.90;;;;;;5050980;28;20043;-74
2023/10/31 03:40:41;;;;;;;0.45;0.30;;;10.50;99.90;;;;;;5039503;28;20053;-74
2023/10/31 03:43:07;;;;;;;0.45;0.40;;;10.60;99.90;;;;;;5047782;28;20032;-75
2023/10/31 03:45:33;;;;;;;0.40;0.30;;;10.60;99.90;;;;;;5038892;28;20033;-75
2023/10/31 03:47:58;;;;;;;2.22;0.30;;;10.60;99.90;;;;;;5052367;28;20029;-75
2023/10/31 03:50:24;;;;;;;4.60;0.30;;;10.60;99.90;;;;;;5032075;28;20031;-74
2023/10/31 03:52:50;;;;;;;0.38;0.25;;;10.60;99.90;;;;;;5050814;28;20025;-74
2023/10/31 03:55:15;;;;;;;0.65;0.40;;;10.60;99.90;;;;;;5035817;28;20028;-75
2023/10/31 03:57:41;;;;;;;0.50;0.30;;;10.60;99.90;;;;;;5043402;28;20052;-75
2023/10/31 04:00:07;;;;;;;0.30;0.30;;;10.60;99.90;;;;;;5038216;28;20074;-75
2023/10/31 04:02:33;;;;;;;0.73;0.20;;;10.60;99.90;;;;;;5042181;28;20431;-75
2023/10/31 04:04:59;;;;;;;0.70;0.52;;;10.50;99.90;;;;;;5038534;28;20719;-75
2023/10/31 04:07:24;;;;;;;2.58;0.60;;;10.60;99.90;;;;;;5050466;28;20048;-75
2023/10/31 04:09:50;;;;;;;0.30;0.30;;;10.60;99.90;;;;;;5033864;28;20033;-75
2023/10/31 04:12:16;;;;;;;1.70;1.00;;;10.60;99.90;;;;;;5048303;28;20085;-74
2023/10/31 04:14:42;;;;;;;0.63;0.52;;;10.60;99.90;;;;;;5053604;28;20032;-75
2023/10/31 04:17:07;;;;;;;1.80;0.60;;;10.60;99.90;;;;;;5032322;28;20047;-74
2023/10/31 04:19:33;;;;;;;0.20;0.20;;;10.60;99.90;;;;;;5049213;28;20033;-75
2023/10/31 04:21:59;;;;;;;0.55;0.40;;;10.60;99.90;;;;;;5036300;28;20036;-75
2023/10/31 04:24:24;;;;;;;0.57;0.47;;;10.60;99.90;;;;;;5047528;28;20424;-75
2023/10/31 04:26:50;;;;;;;0.90;0.43;;;10.60;99.90;;;;;;5033826;28;20561;-73
2023/10/31 04:29:15;;;;;;;0.57;0.38;;;10.60;99.90;;;;;;5048102;28;20689;-74
2023/10/31 04:31:41;;;;;;;0.32;0.32;;;10.60;99.90;;;;;;5032446;28;20032;-74
2023/10/31 04:34:08;;;;;;;0.20;0.20;;;10.60;99.90;;;;;;5046679;28;20029;-74
2023/10/31 04:36:33;;;;;;;2.25;0.55;;;10.60;99.90;;;;;;5034658;28;20392;-74
2023/10/31 04:38:59;;;;;;;0.30;0.20;;;10.80;99.90;;;;;;5048029;28;20021;-73
2023/10/31 04:41:24;;;;;;;0.68;0.10;;;10.90;99.90;;;;;;5038175;28;20039;-74
2023/10/31 04:43:50;;;;;;;0.55;0.40;;;11.00;99.90;;;;;;5044112;28;20052;-74
2023/10/31 04:46:16;;;;;;;0.00;0.00;;;11.10;99.90;;;;;;5037768;28;20550;-74
2023/10/31 04:48:42;;;;;;;0.00;0.00;;;11.00;99.90;;;;;;5050298;28;20028;-75
2023/10/31 04:51:08;;;;;;;0.40;0.40;;;11.00;99.90;;;;;;5039330;28;20086;-74
2023/10/31 04:53:34;;;;;;;0.00;0.00;;;11.00;99.90;;;;;;5042708;28;20094;-74
2023/10/31 04:56:00;;;;;;;0.00;0.00;;;11.00;99.90;;;;;;5047518;28;20131;-74
2023/10/31 04:58:26;;;;;;;0.00;0.00;;;11.00;99.90;;;;;;5037088;28;20133;-74
2023/10/31 05:00:51;;;;;;;0.00;0.00;;;10.90;99.90;;;;;;5050083;28;20057;-74
2023/10/31 05:03:17;;;;;;;0.00;0.00;;;10.90;99.90;;;;;;5019004;28;20032;-74
2023/10/31 05:05:44;;;;;;;0.30;0.13;;;10.90;99.90;;;;;;5045193;28;20044;-74
2023/10/31 05:08:10;;;;;;;0.00;0.00;;;10.90;99.90;;;;;;5036522;28;20037;-76
2023/10/31 05:10:35;;;;;;;0.90;0.17;;;11.00;99.90;;;;;;5039948;28;20419;-76
2023/10/31 05:13:03;;;;;;;0.20;0.15;;;10.90;99.90;;;;;;5028342;28;20029;-76
2023/10/31 05:15:28;;;;;;;1.02;0.20;;;10.90;99.90;;;;;;5045822;28;20025;-76
2023/10/31 05:17:54;;;;;;;0.00;0.00;;;11.00;99.90;;;;;;5031403;28;20362;-75
2023/10/31 05:20:20;;;;;;;0.75;0.20;;;11.00;99.90;;;;;;5046680;28;20036;-76
2023/10/31 05:22:46;;;;;;;3.35;0.30;;;11.00;99.90;;;;;;5032655;28;20028;-75
2023/10/31 05:25:12;;;;;;;0.00;0.00;;;11.10;99.90;;;;;;5048305;28;20040;-75
2023/10/31 05:27:39;;;;;;;4.95;0.28;;;11.10;99.90;;;;;;5032741;28;20033;-74
2023/10/31 05:30:05;;;;;;;0.52;0.10;;;11.10;99.90;;;;;;5046554;28;20035;-75
2023/10/31 05:32:30;;;;;;;0.10;0.10;;;11.10;99.90;;;;;;5041393;28;20060;-74
2023/10/31 05:34:56;;;;;;;0.00;0.00;;;11.20;99.90;;;;;;5047701;28;20159;-74
2023/10/31 05:37:22;;;;;;;2.38;0.32;;;11.20;99.90;;;;;;5042841;28;20017;-74
2023/10/31 05:39:48;;;;;;;1.65;0.17;;;11.20;99.90;;;;;;5031789;28;20083;-74
2023/10/31 05:42:14;;;;;;;0.30;0.10;;;11.30;99.90;;;;;;5049526;28;20025;-74
2023/10/31 05:44:40;;;;;;;1.65;0.10;;;11.30;99.90;;;;;;5035934;28;20043;-74
2023/10/31 05:47:05;;;;;;;0.10;0.10;;;11.40;99.90;;;;;;5053457;28;20029;-73
2023/10/31 05:49:31;;;;;;;0.00;0.00;;;11.40;99.90;;;;;;5030450;28;20083;-74
2023/10/31 05:51:57;;;;;;;4.18;0.20;;;11.40;99.90;;;;;;5044928;28;20109;-74
2023/10/31 05:54:22;;;;;;;1.30;0.10;;;11.40;99.90;;;;;;5038508;28;20043;-75
2023/10/31 05:56:48;;;;;;;0.10;0.10;;;11.40;99.90;;;;;;5050174;28;20028;-75
2023/10/31 05:59:13;;;;;;;0.10;0.10;;;11.50;99.90;;;;;;5039717;28;20066;-75
2023/10/31 06:01:39;;;;;;;0.30;0.10;;;11.40;99.90;;;;;;5053513;28;20087;-74
2023/10/31 06:04:05;;;;;;;1.30;0.40;;;11.40;99.90;;;;;;5035953;28;21205;-75
2023/10/31 06:06:32;;;;;;;2.92;0.43;;;11.40;99.90;;;;;;5051447;28;20029;-75
2023/10/31 06:08:58;;;;;;;0.00;0.00;;;11.40;99.90;;;;;;5052900;28;20029;-75
2023/10/31 06:11:24;;;;;;;0.03;0.03;;;11.40;99.90;;;;;;5073381;28;20060;-75
2023/10/31 06:13:49;;;;;;;0.68;0.68;;;11.30;99.90;;;;;;5076539;28;20118;-75
2023/10/31 06:16:16;;;;;;;0.30;0.20;;;11.40;99.90;;;;;;5045012;28;20041;-75
2023/10/31 06:18:41;;;;;;;0.20;0.20;;;11.40;99.90;;;;;;5038146;28;20025;-75
2023/10/31 06:21:09;;;;;;;0.00;0.00;;;11.40;99.90;;;;;;5035845;28;20434;-74
2023/10/31 06:23:38;;;;;;;0.00;0.00;;;11.50;99.90;;;;;;5046683;28;20025;-74
2023/10/31 06:26:04;;;;;;;0.10;0.10;;;11.60;99.90;;;;;;5031722;28;20356;-74
2023/10/31 06:28:29;;;;;;;0.00;0.00;;;11.70;99.90;;;;;;5041261;28;20058;-74
2023/10/31 06:30:55;;;;;;;3.20;0.30;;;11.70;99.90;;;;;;5033580;28;20025;-74
2023/10/31 06:33:21;;;;;;;4.10;0.10;;;11.70;99.90;;;;;;5049639;28;20032;-73
2023/10/31 06:35:46;;;;;;;0.30;0.10;;;11.70;99.90;;;;;;5037093;28;20128;-74
2023/10/31 06:38:13;;;;;;;1.25;0.28;;;11.80;99.90;;;;;;5045620;28;20036;-74
2023/10/31 06:40:38;;;;;;;4.93;0.30;;;11.80;99.90;;;;;;5033224;28;20064;-74
2023/10/31 06:43:04;;;;;;;0.17;0.17;;;11.90;99.90;;;;;;5046064;28;20124;-75
2023/10/31 06:45:29;;;;;;;0.10;0.10;;;11.90;99.90;;;;;;5035000;28;20432;-75
2023/10/31 06:47:55;;;;;;;1.27;0.08;;;12.10;99.90;;;;;;5051633;28;20081;-75
2023/10/31 06:50:22;;;;;;;0.00;0.00;;;12.10;99.90;;;;;;5037017;28;20036;-75
2023/10/31 06:52:48;;;;;;;1.95;0.77;;;12.20;99.90;;;;;;5048809;28;20029;-74
2023/10/31 06:55:13;;;;;;;0.00;0.00;;;12.10;99.90;;;;;;5041504;28;20040;-74
2023/10/31 06:57:39;;;;;;;0.05;0.05;;;12.10;99.90;;;;;;5040319;28;20090;-74
2023/10/31 07:00:08;;;;;;;0.00;0.00;;;12.00;99.90;;;;;;5046603;28;20052;-73
2023/10/31 07:02:35;;;;;;;3.88;0.47;;;11.90;99.90;;;;;;5039147;28;20176;-73
2023/10/31 07:05:00;;;;;;;0.95;0.13;;;11.90;99.90;;;;;;5030380;28;21306;-74
2023/10/31 07:07:26;;;;;;;0.57;0.30;;;11.90;99.90;;;;;;5036718;28;20044;-74
2023/10/31 07:09:52;;;;;;;0.10;0.10;;;11.90;99.90;;;;;;5042732;28;20033;-74
2023/10/31 07:12:17;;;;;;;2.35;0.10;;;11.90;99.90;;;;;;5015223;28;20056;-74
2023/10/31 07:14:43;;;;;;;3.30;0.45;;;11.90;99.90;;;;;;5036813;28;20021;-73
2023/10/31 07:17:09;;;;;;;0.63;0.10;;;11.90;99.90;;;;;;5030184;28;20032;-75
2023/10/31 07:19:34;;;;;;;1.50;0.40;;;11.80;99.90;;;;;;5046009;28;20039;-76
2023/10/31 07:22:00;;;;;;;0.10;0.10;;;11.80;99.90;;;;;;5035641;28;20039;-75
2023/10/31 07:24:27;;;;;;;0.50;0.30;;;11.90;99.90;;;;;;5049495;28;20039;-76
2023/10/31 07:26:53;;;;;;;0.55;0.10;;;11.80;99.90;;;;;;5033329;28;20552;-76
2023/10/31 07:29:19;;;;;;;0.15;0.15;;;11.90;99.90;;;;;;5046064;28;20037;-76
2023/10/31 07:31:45;;;;;;;0.22;0.00;;;11.80;99.90;;;;;;5050703;28;20051;-77
2023/10/31 07:34:11;;;;;;;0.00;0.00;;;11.70;99.90;;;;;;5067239;28;20021;-76
2023/10/31 07:36:37;;;;;;;0.35;0.10;;;11.70;99.90;;;;;;5050536;28;20027;-73
2023/10/31 07:39:03;;;;;;;0.00;0.00;;;11.60;99.90;;;;;;5059874;28;20084;-74
2023/10/31 07:41:29;;;;;;;0.25;0.10;;;11.70;99.90;;;;;;5052885;28;20036;-75
2023/10/31 07:43:55;;;;;;;0.00;0.00;;;11.60;99.90;;;;;;5035469;28;20095;-74
2023/10/31 07:46:21;;;;;;;0.05;0.05;;;11.60;99.90;;;;;;5049620;28;20703;-75
2023/10/31 07:48:47;;;;;;;0.00;0.00;;;11.60;99.90;;;;;;5028059;28;20024;-74
2023/10/31 07:51:12;;;;;;;0.08;0.08;;;11.60;99.90;;;;;;5044365;28;20743;-74
2023/10/31 07:53:38;;;;;;;1.00;0.15;;;11.70;99.90;;;;;;5030065;28;20041;-73
2023/10/31 07:56:04;;;;;;;0.10;0.10;;;11.70;99.90;;;;;;5048982;28;20033;-74
2023/10/31 07:58:29;;;;;;;0.45;0.20;;;11.80;99.90;;;;;;5043804;28;20052;-73
2023/10/31 08:00:55;;;;;;;0.20;0.10;;;11.70;99.90;;;;;;5043069;28;20149;-74
2023/10/31 08:03:21;;;;;;;2.72;0.45;;;11.70;99.90;;;;;;5038983;28;20468;-73
2023/10/31 08:05:47;;;;;;;1.33;0.15;;;11.70;99.90;;;;;;5039995;28;20028;-73
2023/10/31 08:08:12;;;;;;;0.00;0.00;;;11.70;99.90;;;;;;5033447;28;20037;-74
2023/10/31 08:10:38;;;;;;;0.05;0.05;;;11.80;99.90;;;;;;5036926;28;21399;-73
2023/10/31 08:13:04;;;;;;;0.45;0.05;;;11.80;99.90;;;;;;5030762;28;20044;-74
2023/10/31 08:15:29;;;;;;;1.30;0.45;;;11.90;99.90;;;;;;5012541;28;20029;-74
2023/10/31 08:17:55;;;;;;;2.10;0.63;;;12.10;99.90;;;;;;5025940;28;20064;-74
2023/10/31 08:20:20;;;;;;;0.10;0.10;;;12.20;99.90;;;;;;5026349;28;20374;-74
2023/10/31 08:22:46;;;;;;;5.07;0.20;;;12.30;99.90;;;;;;5044507;28;22172;-74
2023/10/31 08:25:12;;;;;;;0.10;0.08;;;12.30;99.90;;;;;;5018678;28;20036;-74
2023/10/31 08:27:37;;;;;;;0.30;0.10;;;12.40;99.90;;;;;;5020140;28;20036;-75
2023/10/31 08:30:03;;;;;;;6.38;0.25;;;12.40;99.90;;;;;;5026332;28;20098;-74
2023/10/31 08:32:29;;;;;;;1.35;0.00;;;12.40;99.90;;;;;;5040317;28;20028;-74
2023/10/31 08:34:56;;;;;;;0.82;0.15;;;12.40;99.90;;;;;;5040510;28;20029;-73
2023/10/31 08:37:21;;;;;;;0.20;0.03;;;12.30;99.90;;;;;;5050796;28;20029;-75
2023/10/31 08:39:47;;;;;;;2.55;0.30;;;12.30;99.90;;;;;;5044521;28;20033;-74
2023/10/31 08:42:13;;;;;;;0.00;0.00;;;12.30;99.90;;;;;;5054586;28;20128;-75
2023/10/31 08:44:40;;;;;;;2.25;0.28;;;12.20;99.90;;;;;;5043527;28;20519;-75
2023/10/31 08:47:06;;;;;;;0.20;0.20;;;12.20;99.90;;;;;;5066065;28;20092;-74
2023/10/31 08:49:32;;;;;;;0.03;0.03;;;12.10;99.90;;;;;;5050349;28;20032;-76
2023/10/31 08:52:01;;;;;;;3.72;0.13;;;12.10;99.90;;;;;;5046018;28;20040;-74
2023/10/31 08:54:27;;;;;;;;;;;12.10;99.90;;;;;;5028306;28;20083;-74
2023/10/31 08:56:52;;;;;;;0.43;0.10;;;12.10;99.90;;;;;;5024293;28;20034;-74
2023/10/31 08:59:18;;;;;;;0.10;0.05;;;12.10;99.90;;;;;;5037231;28;20026;-76
2023/10/31 09:01:44;;;;;;;0.20;0.20;;;12.00;99.90;;;;;;5048351;28;20104;-73
2023/10/31 09:04:11;;;;;;;0.30;0.10;;;12.00;99.90;;;;;;5044863;28;20979;-76
2023/10/31 09:06:37;;;;;;;0.08;0.00;;;12.00;99.90;;;;;;5041299;28;20025;-76
2023/10/31 09:09:04;;;;;;;7.40;0.45;;;12.10;99.90;;;;;;5042582;28;20087;-75
2023/10/31 09:11:29;;;;;;;3.92;0.32;;;12.20;99.90;;;;;;5016452;28;20032;-75
2023/10/31 09:13:55;;;;;;;0.15;0.08;;;12.30;99.90;;;;;;5041621;28;20044;-74
2023/10/31 09:16:20;;;;;;;2.90;1.00;;;12.50;99.90;;;;;;5037253;28;20033;-75
2023/10/31 09:18:46;;;;;;;0.88;0.20;;;12.70;99.90;;;;;;5041259;28;20037;-75
2023/10/31 09:21:12;;;;;;;0.47;0.20;;;12.90;99.90;;;;;;5031124;28;20039;-74
2023/10/31 09:23:38;;;;;;;0.00;0.00;;;13.10;99.90;;;;;;5013164;28;20463;-77
2023/10/31 09:26:04;;;;;;;1.77;0.10;;;13.20;99.90;;;;;;5003164;28;20044;-78
2023/10/31 09:28:29;;;;;;;3.50;0.32;;;13.40;99.90;;;;;;5017173;28;20067;-76
2023/10/31 09:30:56;;;;;;;3.63;0.30;;;13.50;99.90;;;;;;5009848;28;20038;-78
2023/10/31 09:33:21;;;;;;;0.22;0.13;;;13.70;99.90;;;;;;5005530;28;20026;-76
2023/10/31 09:35:47;;;;;;;0.30;0.30;;;13.80;99.90;;;;;;5002668;28;20033;-76
2023/10/31 09:38:12;;;;;;;2.65;0.10;;;13.90;99.90;;;;;;5002538;28;20029;-75
2023/10/31 09:40:39;;;;;;;0.38;0.20;;;14.00;99.90;;;;;;5011787;28;20034;-76
2023/10/31 09:43:05;;;;;;;1.45;0.28;;;14.30;99.90;;;;;;4996988;28;20033;-73
2023/10/31 09:45:31;;;;;;;0.47;0.20;;;14.70;99.90;;;;;;5016411;28;20067;-74
2023/10/31 09:48:00;;;;;;;4.75;0.17;;;15.00;99.90;;;;;;5007915;28;20029;-77
2023/10/31 09:50:26;;;;;;;1.35;0.20;;;15.20;99.80;;;;;;5012698;28;20079;-76
2023/10/31 09:52:55;;;;;;;1.38;0.60;;;15.50;99.40;;;;;;5008746;28;20091;-77
2023/10/31 09:55:22;;;;;;;0.05;0.00;;;15.60;98.50;;;;;;5022188;28;21108;-76
2023/10/31 09:57:48;;;;;;;0.17;0.00;;;15.70;98.20;;;;;;5015284;28;20030;-76
2023/10/31 10:00:15;;;;;;;0.93;0.40;;;15.70;97.70;;;;;;5014454;28;20040;-75
2023/10/31 10:02:40;;;;;;;3.03;0.38;;;15.60;97.90;;;;;;5013928;28;20048;-74
2023/10/31 10:05:08;;;;;;;0.95;0.28;;;15.30;98.50;;;;;;5012389;28;20397;-74
2023/10/31 10:07:35;;;;;;;0.70;0.20;;;14.90;99.20;;;;;;5011444;28;22950;-78
2023/10/31 10:10:01;;;;;;;4.25;1.08;;;14.70;99.90;;;;;;5019732;28;20046;-77
2023/10/31 10:12:27;;;;;;;3.80;0.85;;;14.60;99.90;;;;;;5013545;28;20032;-79
2023/10/31 10:14:53;;;;;;;2.63;0.70;;;14.50;99.90;;;;;;5028618;28;20045;-76
2023/10/31 10:17:23;;;;;;;0.95;0.20;;;14.60;99.90;;;;;;5023654;28;20101;-75
2023/10/31 10:20:04;;;;;;;3.45;0.40;;;14.50;99.90;;;;;;5025192;28;20029;-75
2023/10/31 10:22:30;;;;;;;2.42;0.38;;;14.60;99.90;;;;;;5024182;28;20036;-76
2023/10/31 10:24:56;;;;;;;3.97;0.40;;;14.80;99.90;;;;;;5014507;28;20047;-78
2023/10/31 10:27:21;;;;;;;1.45;0.28;;;14.80;99.90;;;;;;5022381;28;20447;-74
2023/10/31 10:29:47;;;;;;;0.65;0.43;;;14.80;99.90;;;;;;5013399;28;20029;-75
2023/10/31 10:32:13;;;;;;;0.35;0.20;;;14.80;99.90;;;;;;5021123;28;20064;-75
2023/10/31 10:34:41;;;;;;;1.58;0.57;;;15.00;99.90;;;;;;5012975;28;20053;-74
2023/10/31 10:37:08;;;;;;;3.97;0.47;;;15.00;99.60;;;;;;5021427;28;20017;-75
2023/10/31 10:39:35;;;;;;;7.65;0.70;;;15.20;99.70;;;;;;5024191;28;20504;-75
2023/10/31 10:42:01;;;;;;;0.20;0.10;;;15.40;99.30;;;;;;5035026;28;20044;-74
2023/10/31 10:44:35;;;;;;;6.13;0.63;;;15.40;99.10;;;;;;5018377;28;20477;-75
2023/10/31 10:47:04;;;;;;;0.38;0.20;;;15.50;99.20;;;;;;5022577;28;20339;-74
2023/10/31 10:49:33;;;;;;;2.05;0.60;;;15.60;98.50;;;;;;5016903;28;20045;-74
2023/10/31 10:52:08;;;;;;;0.65;0.38;;;15.70;98.80;;;;;;5020419;28;20036;-74
2023/10/31 10:54:52;;;;;;;1.00;0.30;;;15.80;98.30;;;;;;5019659;28;20025;-75
2023/10/31 10:57:42;;;;;;;2.42;0.50;;;15.90;97.80;;;;;;5021950;28;20394;-74
2023/10/31 11:00:09;;;;;;;1.85;0.68;;;16.00;97.00;;;;;;5012994;28;20030;-75
2023/10/31 11:02:36;;;;;;;2.40;0.30;;;16.10;96.60;;;;;;5036816;28;20167;-74
2023/10/31 11:05:07;;;;;;;1.85;0.20;;;16.20;95.90;;;;;;5033517;28;20025;-75
2023/10/31 11:07:33;;;;;;;4.25;0.30;;;16.10;96.40;;;;;;5036335;28;20040;-74
2023/10/31 11:10:02;;;;;;;0.68;0.20;;;16.00;95.90;;;;;;5020802;28;20550;-75
2023/10/31 11:12:30;;;;;;;3.28;0.50;;;16.00;95.60;;;;;;5017919;28;20038;-77
2023/10/31 11:14:57;;;;;;;1.98;0.22;;;16.00;95.30;;;;;;5013230;28;20037;-77
2023/10/31 11:17:34;;;;;;;3.72;0.30;;;16.00;95.70;;;;;;5016068;28;20033;-76
2023/10/31 11:20:00;;;;;;;0.10;0.10;;;16.00;95.60;;;;;;5010336;28;20084;-74
2023/10/31 11:22:37;;;;;;;3.35;0.47;;;16.00;95.60;;;;;;5024150;28;20041;-75
2023/10/31 11:25:03;;;;;;;1.88;0.20;;;16.00;95.70;;;;;;5018289;28;20042;-75
2023/10/31 11:27:29;;;;;;;0.65;0.20;;;16.00;95.50;;;;;;5026343;28;20504;-77
2023/10/31 11:29:55;;;;;;;3.33;0.30;;;16.00;95.60;;;;;;5017812;28;20033;-75
2023/10/31 11:32:22;;;;;;;3.20;0.65;;;16.10;95.30;;;;;;5045260;28;20037;-74
2023/10/31 11:34:48;;;;;;;0.38;0.20;;;16.30;95.80;;;;;;5025560;28;20037;-74
2023/10/31 11:37:34;;;;;;;2.83;0.47;;;16.50;94.70;;;;;;5016358;28;20025;-74
2023/10/31 11:40:18;;;;;;;0.82;0.32;;;16.60;94.40;;;;;;5008699;28;20029;-78
2023/10/31 11:42:48;;;;;;;1.25;0.17;;;16.70;94.00;;;;;;5015294;28;20683;-79
2023/10/31 11:45:28;;;;;;;3.55;0.47;;;16.70;94.30;;;;;;5008752;28;20041;-79
2023/10/31 11:47:54;;;;;;;1.95;0.40;;;17.00;93.90;;;;;;5007994;28;20064;-76
2023/10/31 11:50:20;;;;;;;1.55;0.20;;;17.10;93.60;;;;;;4998967;28;20493;-78
2023/10/31 11:53:04;;;;;;;2.15;0.40;;;16.80;93.50;;;;;;5003628;28;20137;-77
2023/10/31 11:55:35;;;;;;;0.50;0.30;;;16.70;93.90;;;;;;5008418;28;20033;-80
2023/10/31 11:58:19;;;;;;;2.28;0.32;;;16.70;94.60;;;;;;5009351;28;20057;-76
2023/10/31 12:00:50;;;;;;;1.25;0.25;;;16.70;94.10;;;;;;5001068;28;20052;-75
2023/10/31 12:03:19;;;;;;;1.20;0.30;;;16.70;93.90;;;;;;5026465;28;20025;-75
2023/10/31 12:05:55;;;;;;;1.20;0.30;;;16.80;93.10;;;;;;5009628;28;20052;-76
2023/10/31 12:08:41;;;;;;;2.58;0.55;;;16.70;93.20;;;;;;5014819;28;20074;-75
2023/10/31 12:11:13;;;;;;;3.03;0.38;;;16.80;93.70;;;;;;5002980;28;20991;-76
2023/10/31 12:13:40;;;;;;;3.72;0.50;;;16.70;93.40;;;;;;5014794;28;20057;-74
2023/10/31 12:16:12;;;;;;;0.88;0.20;;;16.60;93.70;;;;;;5010704;28;20610;-76
2023/10/31 12:18:39;;;;;;;5.97;0.73;;;16.70;94.60;;;;;;5010471;28;20114;-73
2023/10/31 12:21:07;;;;;;;0.75;0.40;;;16.90;94.20;;;;;;5011113;28;20037;-78
2023/10/31 12:23:32;;;;;;;2.42;0.30;;;16.80;93.60;;;;;;5003956;28;20033;-77
2023/10/31 12:25:59;;;;;;;0.10;0.10;;;16.90;93.30;;;;;;5009465;28;20562;-74
2023/10/31 12:28:26;;;;;;;0.20;0.15;;;17.00;93.30;;;;;;5003152;28;20044;-75
2023/10/31 12:30:54;;;;;;;0.10;0.10;;;16.90;93.10;;;;;;5005780;28;20025;-75
2023/10/31 12:33:24;;;;;;;1.67;0.33;;;16.90;93.10;;;;;;4997963;28;20056;-77
2023/10/31 12:35:53;;;;;;;0.93;0.20;;;16.80;93.40;;;;;;5016025;28;20275;-77
2023/10/31 12:38:19;;;;;;;5.28;0.40;;;16.70;93.80;;;;;;5000594;28;20112;-76
2023/10/31 12:40:46;;;;;;;1.33;0.50;;;16.80;94.00;;;;;;5010563;28;20080;-77
2023/10/31 12:43:12;;;;;;;0.77;0.30;;;16.90;93.60;;;;;;4989129;28;20123;-74
2023/10/31 12:45:38;;;;;;;2.13;0.68;;;17.00;93.40;;;;;;5003910;28;20403;-77
2023/10/31 12:48:08;;;;;;;4.22;0.55;;;16.80;93.00;;;;;;5005858;28;20041;-79